sensor_id;sensor_type;location;lat;lon;timestamp;P1;durP1;ratioP1;P2;durP2;ratioP2
78752;SDS011;68072;51.688;7.842;2023-07-13T00:01:13;2.53;;;2.15;;
78752;SDS011;68072;51.688;7.842;2023-07-13T00:03:39;6.78;;;2.20;;
78752;SDS011;68072;51.688;7.842;2023-07-13T00:06:06;4.28;;;2.55;;
78752;SDS011;68072;51.688;7.842;2023-07-13T00:08:33;3.58;;;1.85;;
78752;SDS011;68072;51.688;7.842;2023-07-13T00:11:00;5.28;;;2.22;;
78752;SDS011;68072;51.688;7.842;2023-07-13T00:13:26;2.72;;;2.10;;
78752;SDS011;68072;51.688;7.842;2023-07-13T00:15:53;4.70;;;2.28;;
78752;SDS011;68072;51.688;7.842;2023-07-13T00:18:19;5.97;;;2.42;;
78752;SDS011;68072;51.688;7.842;2023-07-13T00:20:46;3.60;;;2.28;;
78752;SDS011;68072;51.688;7.842;2023-07-13T00:23:12;7.82;;;2.63;;
78752;SDS011;68072;51.688;7.842;2023-07-13T00:25:38;5.38;;;2.08;;
78752;SDS011;68072;51.688;7.842;2023-07-13T00:28:04;5.30;;;2.10;;
78752;SDS011;68072;51.688;7.842;2023-07-13T00:32:55;2.22;;;1.90;;
78752;SDS011;68072;51.688;7.842;2023-07-13T00:35:21;8.25;;;2.60;;
78752;SDS011;68072;51.688;7.842;2023-07-13T00:37:47;3.95;;;2.63;;
78752;SDS011;68072;51.688;7.842;2023-07-13T00:40:13;7.85;;;2.20;;
78752;SDS011;68072;51.688;7.842;2023-07-13T00:42:41;7.85;;;2.35;;
78752;SDS011;68072;51.688;7.842;2023-07-13T00:47:39;3.08;;;2.13;;
78752;SDS011;68072;51.688;7.842;2023-07-13T00:50:07;6.03;;;2.13;;
78752;SDS011;68072;51.688;7.842;2023-07-13T00:52:35;3.92;;;2.00;;
78752;SDS011;68072;51.688;7.842;2023-07-13T00:55:02;5.45;;;2.70;;
78752;SDS011;68072;51.688;7.842;2023-07-13T00:59:55;4.55;;;2.13;;
78752;SDS011;68072;51.688;7.842;2023-07-13T01:02:24;6.40;;;2.72;;
78752;SDS011;68072;51.688;7.842;2023-07-13T01:04:50;6.05;;;2.58;;
78752;SDS011;68072;51.688;7.842;2023-07-13T01:07:17;4.38;;;1.88;;
78752;SDS011;68072;51.688;7.842;2023-07-13T01:09:44;5.55;;;2.25;;
78752;SDS011;68072;51.688;7.842;2023-07-13T01:12:11;7.18;;;2.30;;
78752;SDS011;68072;51.688;7.842;2023-07-13T01:14:37;4.32;;;2.20;;
78752;SDS011;68072;51.688;7.842;2023-07-13T01:17:03;4.43;;;2.28;;
78752;SDS011;68072;51.688;7.842;2023-07-13T01:22:09;4.05;;;2.15;;
78752;SDS011;68072;51.688;7.842;2023-07-13T01:24:37;3.40;;;2.05;;
78752;SDS011;68072;51.688;7.842;2023-07-13T01:27:04;10.93;;;2.33;;
78752;SDS011;68072;51.688;7.842;2023-07-13T01:29:32;9.45;;;2.47;;
78752;SDS011;68072;51.688;7.842;2023-07-13T01:31:59;3.42;;;1.63;;
78752;SDS011;68072;51.688;7.842;2023-07-13T01:34:26;2.38;;;2.05;;
78752;SDS011;68072;51.688;7.842;2023-07-13T01:36:53;4.13;;;2.22;;
78752;SDS011;68072;51.688;7.842;2023-07-13T01:39:20;3.42;;;2.10;;
78752;SDS011;68072;51.688;7.842;2023-07-13T01:41:47;3.00;;;1.83;;
78752;SDS011;68072;51.688;7.842;2023-07-13T01:44:13;9.07;;;2.47;;
78752;SDS011;68072;51.688;7.842;2023-07-13T01:49:05;6.95;;;2.28;;
78752;SDS011;68072;51.688;7.842;2023-07-13T01:51:31;3.75;;;2.10;;
78752;SDS011;68072;51.688;7.842;2023-07-13T01:53:57;7.88;;;2.35;;
78752;SDS011;68072;51.688;7.842;2023-07-13T01:56:23;5.35;;;2.28;;
78752;SDS011;68072;51.688;7.842;2023-07-13T01:58:49;5.78;;;1.85;;
78752;SDS011;68072;51.688;7.842;2023-07-13T02:01:15;4.82;;;1.83;;
78752;SDS011;68072;51.688;7.842;2023-07-13T02:03:41;5.32;;;2.08;;
78752;SDS011;68072;51.688;7.842;2023-07-13T02:06:07;6.70;;;2.00;;
78752;SDS011;68072;51.688;7.842;2023-07-13T02:08:33;6.43;;;1.85;;
78752;SDS011;68072;51.688;7.842;2023-07-13T02:10:59;5.47;;;2.08;;
78752;SDS011;68072;51.688;7.842;2023-07-13T02:15:51;4.43;;;2.10;;
78752;SDS011;68072;51.688;7.842;2023-07-13T02:20:44;2.05;;;1.50;;
78752;SDS011;68072;51.688;7.842;2023-07-13T02:23:10;2.42;;;1.70;;
78752;SDS011;68072;51.688;7.842;2023-07-13T02:25:36;6.20;;;1.92;;
78752;SDS011;68072;51.688;7.842;2023-07-13T02:28:02;5.35;;;2.25;;
78752;SDS011;68072;51.688;7.842;2023-07-13T02:30:29;3.90;;;1.80;;
78752;SDS011;68072;51.688;7.842;2023-07-13T02:35:21;3.22;;;1.85;;
78752;SDS011;68072;51.688;7.842;2023-07-13T02:37:47;5.60;;;2.05;;
78752;SDS011;68072;51.688;7.842;2023-07-13T02:40:13;3.67;;;1.80;;
78752;SDS011;68072;51.688;7.842;2023-07-13T02:42:39;3.70;;;1.67;;
78752;SDS011;68072;51.688;7.842;2023-07-13T02:47:32;2.67;;;1.50;;
78752;SDS011;68072;51.688;7.842;2023-07-13T02:52:24;3.38;;;2.13;;
78752;SDS011;68072;51.688;7.842;2023-07-13T02:54:50;5.05;;;2.35;;
78752;SDS011;68072;51.688;7.842;2023-07-13T02:57:18;6.50;;;2.08;;
78752;SDS011;68072;51.688;7.842;2023-07-13T02:59:44;7.80;;;2.10;;
78752;SDS011;68072;51.688;7.842;2023-07-13T03:04:36;3.70;;;1.80;;
78752;SDS011;68072;51.688;7.842;2023-07-13T03:07:03;3.75;;;1.63;;
78752;SDS011;68072;51.688;7.842;2023-07-13T03:09:29;2.33;;;1.73;;
78752;SDS011;68072;51.688;7.842;2023-07-13T03:11:56;2.50;;;1.50;;
78752;SDS011;68072;51.688;7.842;2023-07-13T03:14:22;3.50;;;1.80;;
78752;SDS011;68072;51.688;7.842;2023-07-13T03:16:48;3.30;;;1.50;;
78752;SDS011;68072;51.688;7.842;2023-07-13T03:19:14;4.63;;;1.63;;
78752;SDS011;68072;51.688;7.842;2023-07-13T03:21:40;4.35;;;1.60;;
78752;SDS011;68072;51.688;7.842;2023-07-13T03:24:06;5.80;;;1.60;;
78752;SDS011;68072;51.688;7.842;2023-07-13T03:26:32;5.97;;;1.50;;
78752;SDS011;68072;51.688;7.842;2023-07-13T03:28:58;2.67;;;1.50;;
78752;SDS011;68072;51.688;7.842;2023-07-13T03:31:26;3.30;;;1.58;;
78752;SDS011;68072;51.688;7.842;2023-07-13T03:33:54;2.58;;;1.48;;
78752;SDS011;68072;51.688;7.842;2023-07-13T03:36:26;3.05;;;1.48;;
78752;SDS011;68072;51.688;7.842;2023-07-13T03:38:53;2.33;;;1.80;;
78752;SDS011;68072;51.688;7.842;2023-07-13T03:41:24;4.50;;;1.50;;
78752;SDS011;68072;51.688;7.842;2023-07-13T03:43:50;2.80;;;1.35;;
78752;SDS011;68072;51.688;7.842;2023-07-13T03:46:17;3.40;;;1.38;;
78752;SDS011;68072;51.688;7.842;2023-07-13T03:48:44;2.80;;;1.40;;
78752;SDS011;68072;51.688;7.842;2023-07-13T03:51:11;4.25;;;1.55;;
78752;SDS011;68072;51.688;7.842;2023-07-13T03:53:40;2.88;;;1.08;;
78752;SDS011;68072;51.688;7.842;2023-07-13T03:56:07;4.20;;;1.40;;
78752;SDS011;68072;51.688;7.842;2023-07-13T03:58:35;4.57;;;1.58;;
78752;SDS011;68072;51.688;7.842;2023-07-13T04:01:02;9.00;;;2.00;;
78752;SDS011;68072;51.688;7.842;2023-07-13T04:03:31;2.63;;;1.63;;
78752;SDS011;68072;51.688;7.842;2023-07-13T04:05:58;3.80;;;1.50;;
78752;SDS011;68072;51.688;7.842;2023-07-13T04:08:29;4.47;;;1.45;;
78752;SDS011;68072;51.688;7.842;2023-07-13T04:10:56;3.28;;;1.70;;
78752;SDS011;68072;51.688;7.842;2023-07-13T04:13:23;5.13;;;1.73;;
78752;SDS011;68072;51.688;7.842;2023-07-13T04:15:49;5.70;;;1.38;;
78752;SDS011;68072;51.688;7.842;2023-07-13T04:18:15;7.03;;;1.70;;
78752;SDS011;68072;51.688;7.842;2023-07-13T04:20:41;2.33;;;1.48;;
78752;SDS011;68072;51.688;7.842;2023-07-13T04:23:07;7.00;;;1.50;;
78752;SDS011;68072;51.688;7.842;2023-07-13T04:25:34;4.43;;;1.77;;
78752;SDS011;68072;51.688;7.842;2023-07-13T04:28:00;3.50;;;1.40;;
78752;SDS011;68072;51.688;7.842;2023-07-13T04:30:26;3.95;;;1.55;;
78752;SDS011;68072;51.688;7.842;2023-07-13T04:32:52;6.00;;;1.80;;
78752;SDS011;68072;51.688;7.842;2023-07-13T04:35:19;7.15;;;1.80;;
78752;SDS011;68072;51.688;7.842;2023-07-13T04:37:48;5.55;;;1.50;;
78752;SDS011;68072;51.688;7.842;2023-07-13T04:40:16;3.53;;;1.60;;
78752;SDS011;68072;51.688;7.842;2023-07-13T04:42:43;5.22;;;1.73;;
78752;SDS011;68072;51.688;7.842;2023-07-13T04:45:10;3.53;;;1.58;;
78752;SDS011;68072;51.688;7.842;2023-07-13T04:47:36;8.25;;;1.52;;
78752;SDS011;68072;51.688;7.842;2023-07-13T04:50:02;7.82;;;1.65;;
78752;SDS011;68072;51.688;7.842;2023-07-13T04:52:30;6.03;;;1.77;;
78752;SDS011;68072;51.688;7.842;2023-07-13T04:54:56;10.07;;;2.00;;
78752;SDS011;68072;51.688;7.842;2023-07-13T04:57:22;6.18;;;1.80;;
78752;SDS011;68072;51.688;7.842;2023-07-13T05:02:13;5.75;;;1.63;;
78752;SDS011;68072;51.688;7.842;2023-07-13T05:04:39;4.80;;;1.40;;
78752;SDS011;68072;51.688;7.842;2023-07-13T05:07:05;3.97;;;1.60;;
78752;SDS011;68072;51.688;7.842;2023-07-13T05:09:32;5.05;;;1.35;;
78752;SDS011;68072;51.688;7.842;2023-07-13T05:11:58;2.55;;;1.40;;
78752;SDS011;68072;51.688;7.842;2023-07-13T05:14:24;5.00;;;1.50;;
78752;SDS011;68072;51.688;7.842;2023-07-13T05:16:49;6.30;;;1.90;;
78752;SDS011;68072;51.688;7.842;2023-07-13T05:19:15;5.32;;;1.90;;
78752;SDS011;68072;51.688;7.842;2023-07-13T05:21:41;6.32;;;2.05;;
78752;SDS011;68072;51.688;7.842;2023-07-13T05:24:07;5.88;;;1.60;;
78752;SDS011;68072;51.688;7.842;2023-07-13T05:26:33;2.38;;;1.30;;
78752;SDS011;68072;51.688;7.842;2023-07-13T05:28:59;5.13;;;2.05;;
78752;SDS011;68072;51.688;7.842;2023-07-13T05:31:25;6.05;;;1.52;;
78752;SDS011;68072;51.688;7.842;2023-07-13T05:33:51;4.28;;;1.55;;
78752;SDS011;68072;51.688;7.842;2023-07-13T05:36:17;8.73;;;1.80;;
78752;SDS011;68072;51.688;7.842;2023-07-13T05:38:43;2.95;;;1.25;;
78752;SDS011;68072;51.688;7.842;2023-07-13T05:41:09;4.50;;;1.80;;
78752;SDS011;68072;51.688;7.842;2023-07-13T05:43:35;6.22;;;1.55;;
78752;SDS011;68072;51.688;7.842;2023-07-13T05:46:01;4.47;;;1.70;;
78752;SDS011;68072;51.688;7.842;2023-07-13T05:48:27;5.82;;;1.98;;
78752;SDS011;68072;51.688;7.842;2023-07-13T05:50:53;4.88;;;1.95;;
78752;SDS011;68072;51.688;7.842;2023-07-13T05:53:19;6.75;;;1.60;;
78752;SDS011;68072;51.688;7.842;2023-07-13T05:55:46;4.68;;;1.30;;
78752;SDS011;68072;51.688;7.842;2023-07-13T05:58:16;7.90;;;1.92;;
78752;SDS011;68072;51.688;7.842;2023-07-13T06:00:42;8.35;;;2.00;;
78752;SDS011;68072;51.688;7.842;2023-07-13T06:03:08;6.22;;;1.90;;
78752;SDS011;68072;51.688;7.842;2023-07-13T06:05:37;6.57;;;2.03;;
78752;SDS011;68072;51.688;7.842;2023-07-13T06:08:04;6.15;;;1.58;;
78752;SDS011;68072;51.688;7.842;2023-07-13T06:10:32;8.52;;;1.70;;
78752;SDS011;68072;51.688;7.842;2023-07-13T06:12:59;6.40;;;1.98;;
78752;SDS011;68072;51.688;7.842;2023-07-13T06:15:25;9.15;;;2.00;;
78752;SDS011;68072;51.688;7.842;2023-07-13T06:17:51;6.60;;;1.98;;
78752;SDS011;68072;51.688;7.842;2023-07-13T06:20:16;2.75;;;1.50;;
78752;SDS011;68072;51.688;7.842;2023-07-13T06:22:42;9.90;;;2.10;;
78752;SDS011;68072;51.688;7.842;2023-07-13T06:25:09;7.72;;;2.35;;
78752;SDS011;68072;51.688;7.842;2023-07-13T06:27:35;6.95;;;2.28;;
78752;SDS011;68072;51.688;7.842;2023-07-13T06:30:01;5.63;;;2.33;;
78752;SDS011;68072;51.688;7.842;2023-07-13T06:34:52;7.82;;;2.17;;
78752;SDS011;68072;51.688;7.842;2023-07-13T06:37:18;6.18;;;2.42;;
78752;SDS011;68072;51.688;7.842;2023-07-13T06:39:44;11.35;;;2.90;;
78752;SDS011;68072;51.688;7.842;2023-07-13T06:42:10;9.00;;;2.80;;
78752;SDS011;68072;51.688;7.842;2023-07-13T06:47:02;6.63;;;2.70;;
78752;SDS011;68072;51.688;7.842;2023-07-13T06:49:28;4.90;;;2.58;;
78752;SDS011;68072;51.688;7.842;2023-07-13T06:51:54;5.30;;;2.38;;
78752;SDS011;68072;51.688;7.842;2023-07-13T06:54:20;4.97;;;2.17;;
78752;SDS011;68072;51.688;7.842;2023-07-13T06:56:46;6.78;;;2.67;;
78752;SDS011;68072;51.688;7.842;2023-07-13T07:01:38;2.75;;;1.80;;
78752;SDS011;68072;51.688;7.842;2023-07-13T07:04:04;4.93;;;1.80;;
78752;SDS011;68072;51.688;7.842;2023-07-13T07:06:30;3.67;;;2.10;;
78752;SDS011;68072;51.688;7.842;2023-07-13T07:08:56;9.70;;;2.35;;
78752;SDS011;68072;51.688;7.842;2023-07-13T07:13:50;4.95;;;2.00;;
78752;SDS011;68072;51.688;7.842;2023-07-13T07:16:17;4.25;;;2.45;;
78752;SDS011;68072;51.688;7.842;2023-07-13T07:18:43;8.00;;;2.55;;
78752;SDS011;68072;51.688;7.842;2023-07-13T07:21:10;5.78;;;2.35;;
78752;SDS011;68072;51.688;7.842;2023-07-13T07:26:01;8.73;;;2.47;;
78752;SDS011;68072;51.688;7.842;2023-07-13T07:28:28;5.18;;;2.45;;
78752;SDS011;68072;51.688;7.842;2023-07-13T07:30:55;10.43;;;2.53;;
78752;SDS011;68072;51.688;7.842;2023-07-13T07:33:22;5.80;;;2.47;;
78752;SDS011;68072;51.688;7.842;2023-07-13T07:35:49;8.30;;;2.15;;
78752;SDS011;68072;51.688;7.842;2023-07-13T07:38:15;9.25;;;2.63;;
78752;SDS011;68072;51.688;7.842;2023-07-13T07:40:41;4.22;;;2.45;;
78752;SDS011;68072;51.688;7.842;2023-07-13T07:45:33;5.00;;;1.85;;
78752;SDS011;68072;51.688;7.842;2023-07-13T07:48:00;5.45;;;1.80;;
78752;SDS011;68072;51.688;7.842;2023-07-13T07:50:26;5.13;;;2.08;;
78752;SDS011;68072;51.688;7.842;2023-07-13T07:52:53;5.68;;;1.88;;
78752;SDS011;68072;51.688;7.842;2023-07-13T07:55:19;5.53;;;2.08;;
78752;SDS011;68072;51.688;7.842;2023-07-13T08:00:10;4.72;;;1.58;;
78752;SDS011;68072;51.688;7.842;2023-07-13T08:02:37;6.40;;;2.05;;
78752;SDS011;68072;51.688;7.842;2023-07-13T08:05:03;5.68;;;2.13;;
78752;SDS011;68072;51.688;7.842;2023-07-13T08:07:32;5.47;;;2.38;;
78752;SDS011;68072;51.688;7.842;2023-07-13T08:09:58;7.53;;;2.22;;
78752;SDS011;68072;51.688;7.842;2023-07-13T08:12:24;6.65;;;2.08;;
78752;SDS011;68072;51.688;7.842;2023-07-13T08:17:19;4.90;;;2.10;;
78752;SDS011;68072;51.688;7.842;2023-07-13T08:19:45;6.25;;;2.22;;
78752;SDS011;68072;51.688;7.842;2023-07-13T08:22:11;3.90;;;1.73;;
78752;SDS011;68072;51.688;7.842;2023-07-13T08:24:38;15.68;;;2.60;;
78752;SDS011;68072;51.688;7.842;2023-07-13T08:27:04;6.47;;;2.80;;
78752;SDS011;68072;51.688;7.842;2023-07-13T08:31:59;5.53;;;2.15;;
78752;SDS011;68072;51.688;7.842;2023-07-13T08:34:25;6.00;;;2.08;;
78752;SDS011;68072;51.688;7.842;2023-07-13T08:36:51;9.30;;;2.38;;
78752;SDS011;68072;51.688;7.842;2023-07-13T08:41:45;8.57;;;2.45;;
78752;SDS011;68072;51.688;7.842;2023-07-13T08:44:19;4.82;;;2.25;;
78752;SDS011;68072;51.688;7.842;2023-07-13T08:46:56;12.40;;;2.53;;
78752;SDS011;68072;51.688;7.842;2023-07-13T08:49:24;7.50;;;2.80;;
78752;SDS011;68072;51.688;7.842;2023-07-13T08:54:32;8.77;;;2.72;;
78752;SDS011;68072;51.688;7.842;2023-07-13T08:57:17;3.75;;;2.25;;
78752;SDS011;68072;51.688;7.842;2023-07-13T08:59:45;4.35;;;2.15;;
78752;SDS011;68072;51.688;7.842;2023-07-13T09:04:56;4.43;;;1.88;;
78752;SDS011;68072;51.688;7.842;2023-07-13T09:07:48;4.88;;;1.80;;
78752;SDS011;68072;51.688;7.842;2023-07-13T09:10:32;2.25;;;1.90;;
78752;SDS011;68072;51.688;7.842;2023-07-13T09:16:00;3.30;;;1.67;;
78752;SDS011;68072;51.688;7.842;2023-07-13T09:18:31;3.42;;;2.00;;
78752;SDS011;68072;51.688;7.842;2023-07-13T09:21:13;6.07;;;2.42;;
78752;SDS011;68072;51.688;7.842;2023-07-13T09:23:41;4.82;;;2.10;;
78752;SDS011;68072;51.688;7.842;2023-07-13T09:28:41;5.38;;;1.80;;
78752;SDS011;68072;51.688;7.842;2023-07-13T09:31:10;5.63;;;2.00;;
78752;SDS011;68072;51.688;7.842;2023-07-13T09:33:39;7.93;;;2.10;;
78752;SDS011;68072;51.688;7.842;2023-07-13T09:38:49;3.35;;;1.35;;
78752;SDS011;68072;51.688;7.842;2023-07-13T09:44:06;5.97;;;1.80;;
78752;SDS011;68072;51.688;7.842;2023-07-13T09:46:37;3.88;;;1.60;;
78752;SDS011;68072;51.688;7.842;2023-07-13T09:49:04;6.97;;;2.13;;
78752;SDS011;68072;51.688;7.842;2023-07-13T09:53:56;4.13;;;1.70;;
78752;SDS011;68072;51.688;7.842;2023-07-13T09:56:25;5.07;;;1.70;;
78752;SDS011;68072;51.688;7.842;2023-07-13T09:58:52;3.17;;;1.67;;
78752;SDS011;68072;51.688;7.842;2023-07-13T10:04:01;1.45;;;1.10;;
78752;SDS011;68072;51.688;7.842;2023-07-13T10:06:27;3.42;;;1.70;;
78752;SDS011;68072;51.688;7.842;2023-07-13T10:08:55;6.38;;;2.05;;
78752;SDS011;68072;51.688;7.842;2023-07-13T10:11:23;5.28;;;1.70;;
78752;SDS011;68072;51.688;7.842;2023-07-13T10:13:54;4.88;;;1.50;;
78752;SDS011;68072;51.688;7.842;2023-07-13T10:16:21;5.55;;;1.85;;
78752;SDS011;68072;51.688;7.842;2023-07-13T10:18:49;3.38;;;1.88;;
78752;SDS011;68072;51.688;7.842;2023-07-13T10:21:18;3.67;;;1.70;;
78752;SDS011;68072;51.688;7.842;2023-07-13T10:23:48;4.57;;;1.90;;
78752;SDS011;68072;51.688;7.842;2023-07-13T10:26:19;4.40;;;2.00;;
78752;SDS011;68072;51.688;7.842;2023-07-13T10:28:50;6.25;;;2.72;;
78752;SDS011;68072;51.688;7.842;2023-07-13T10:31:18;4.05;;;1.73;;
78752;SDS011;68072;51.688;7.842;2023-07-13T10:33:45;4.55;;;2.08;;
78752;SDS011;68072;51.688;7.842;2023-07-13T10:36:20;5.22;;;1.80;;
78752;SDS011;68072;51.688;7.842;2023-07-13T10:41:23;4.55;;;1.70;;
78752;SDS011;68072;51.688;7.842;2023-07-13T10:43:51;5.63;;;1.88;;
78752;SDS011;68072;51.688;7.842;2023-07-13T10:46:19;4.05;;;2.22;;
78752;SDS011;68072;51.688;7.842;2023-07-13T10:48:48;7.10;;;1.77;;
78752;SDS011;68072;51.688;7.842;2023-07-13T10:51:17;8.70;;;2.08;;
78752;SDS011;68072;51.688;7.842;2023-07-13T10:53:43;8.02;;;2.30;;
78752;SDS011;68072;51.688;7.842;2023-07-13T10:58:48;3.55;;;1.77;;
78752;SDS011;68072;51.688;7.842;2023-07-13T11:01:49;3.83;;;2.10;;
78752;SDS011;68072;51.688;7.842;2023-07-13T11:04:20;4.95;;;1.95;;
78752;SDS011;68072;51.688;7.842;2023-07-13T11:06:50;3.85;;;1.73;;
78752;SDS011;68072;51.688;7.842;2023-07-13T11:12:01;3.03;;;1.90;;
78752;SDS011;68072;51.688;7.842;2023-07-13T11:14:36;6.75;;;2.35;;
78752;SDS011;68072;51.688;7.842;2023-07-13T11:19:52;4.03;;;2.00;;
78752;SDS011;68072;51.688;7.842;2023-07-13T11:22:21;5.82;;;3.00;;
78752;SDS011;68072;51.688;7.842;2023-07-13T11:27:41;3.45;;;2.05;;
78752;SDS011;68072;51.688;7.842;2023-07-13T11:30:20;10.40;;;2.13;;
78752;SDS011;68072;51.688;7.842;2023-07-13T11:32:49;5.03;;;2.45;;
78752;SDS011;68072;51.688;7.842;2023-07-13T11:35:19;3.83;;;2.20;;
78752;SDS011;68072;51.688;7.842;2023-07-13T11:37:48;3.35;;;2.20;;
78752;SDS011;68072;51.688;7.842;2023-07-13T11:40:14;5.35;;;2.33;;
78752;SDS011;68072;51.688;7.842;2023-07-13T11:42:41;7.20;;;2.50;;
78752;SDS011;68072;51.688;7.842;2023-07-13T11:45:28;3.63;;;2.33;;
78752;SDS011;68072;51.688;7.842;2023-07-13T11:47:54;6.60;;;2.20;;
78752;SDS011;68072;51.688;7.842;2023-07-13T11:50:23;6.07;;;1.75;;
78752;SDS011;68072;51.688;7.842;2023-07-13T11:52:50;5.00;;;2.10;;
78752;SDS011;68072;51.688;7.842;2023-07-13T11:55:20;5.03;;;2.15;;
78752;SDS011;68072;51.688;7.842;2023-07-13T11:57:51;4.65;;;2.17;;
78752;SDS011;68072;51.688;7.842;2023-07-13T12:00:23;5.03;;;2.40;;
78752;SDS011;68072;51.688;7.842;2023-07-13T12:02:53;5.68;;;2.10;;
78752;SDS011;68072;51.688;7.842;2023-07-13T12:05:20;4.07;;;2.15;;
78752;SDS011;68072;51.688;7.842;2023-07-13T12:07:46;8.15;;;2.58;;
78752;SDS011;68072;51.688;7.842;2023-07-13T12:12:45;3.72;;;1.90;;
78752;SDS011;68072;51.688;7.842;2023-07-13T12:15:23;3.70;;;1.95;;
78752;SDS011;68072;51.688;7.842;2023-07-13T12:17:52;3.03;;;1.90;;
78752;SDS011;68072;51.688;7.842;2023-07-13T12:20:26;5.53;;;1.95;;
78752;SDS011;68072;51.688;7.842;2023-07-13T12:22:53;7.03;;;2.25;;
78752;SDS011;68072;51.688;7.842;2023-07-13T12:25:19;6.70;;;2.08;;
78752;SDS011;68072;51.688;7.842;2023-07-13T12:27:46;6.00;;;1.90;;
78752;SDS011;68072;51.688;7.842;2023-07-13T12:30:28;2.33;;;1.67;;
78752;SDS011;68072;51.688;7.842;2023-07-13T12:35:39;5.07;;;1.85;;
78752;SDS011;68072;51.688;7.842;2023-07-13T12:38:17;5.20;;;2.03;;
78752;SDS011;68072;51.688;7.842;2023-07-13T12:40:48;4.65;;;1.70;;
78752;SDS011;68072;51.688;7.842;2023-07-13T12:43:15;5.78;;;1.80;;
78752;SDS011;68072;51.688;7.842;2023-07-13T12:46:02;6.68;;;1.98;;
78752;SDS011;68072;51.688;7.842;2023-07-13T12:48:28;5.68;;;1.92;;
78752;SDS011;68072;51.688;7.842;2023-07-13T12:50:55;5.00;;;1.95;;
78752;SDS011;68072;51.688;7.842;2023-07-13T12:53:23;2.05;;;1.55;;
78752;SDS011;68072;51.688;7.842;2023-07-13T13:01:07;2.83;;;1.70;;
78752;SDS011;68072;51.688;7.842;2023-07-13T13:03:37;4.35;;;1.90;;
78752;SDS011;68072;51.688;7.842;2023-07-13T13:08:46;4.40;;;2.13;;
78752;SDS011;68072;51.688;7.842;2023-07-13T13:11:14;4.57;;;1.90;;
78752;SDS011;68072;51.688;7.842;2023-07-13T13:13:42;3.47;;;1.70;;
78752;SDS011;68072;51.688;7.842;2023-07-13T13:16:12;4.57;;;1.60;;
78752;SDS011;68072;51.688;7.842;2023-07-13T13:18:44;8.00;;;2.10;;
78752;SDS011;68072;51.688;7.842;2023-07-13T13:21:11;4.00;;;1.77;;
78752;SDS011;68072;51.688;7.842;2023-07-13T13:23:37;3.97;;;1.83;;
78752;SDS011;68072;51.688;7.842;2023-07-13T13:26:04;4.55;;;1.80;;
78752;SDS011;68072;51.688;7.842;2023-07-13T13:28:34;2.65;;;1.70;;
78752;SDS011;68072;51.688;7.842;2023-07-13T13:31:00;3.50;;;1.95;;
78752;SDS011;68072;51.688;7.842;2023-07-13T13:33:25;5.03;;;1.58;;
78752;SDS011;68072;51.688;7.842;2023-07-13T13:35:51;4.38;;;1.83;;
78752;SDS011;68072;51.688;7.842;2023-07-13T13:38:20;5.65;;;2.40;;
78752;SDS011;68072;51.688;7.842;2023-07-13T13:40:48;3.63;;;2.00;;
78752;SDS011;68072;51.688;7.842;2023-07-13T13:45:44;3.63;;;2.10;;
78752;SDS011;68072;51.688;7.842;2023-07-13T13:48:15;3.55;;;2.20;;
78752;SDS011;68072;51.688;7.842;2023-07-13T13:50:42;4.32;;;1.75;;
78752;SDS011;68072;51.688;7.842;2023-07-13T13:53:11;3.55;;;1.88;;
78752;SDS011;68072;51.688;7.842;2023-07-13T13:55:39;4.55;;;2.17;;
78752;SDS011;68072;51.688;7.842;2023-07-13T13:58:10;3.72;;;1.75;;
78752;SDS011;68072;51.688;7.842;2023-07-13T14:00:39;5.85;;;2.38;;
78752;SDS011;68072;51.688;7.842;2023-07-13T14:03:05;7.28;;;2.60;;
78752;SDS011;68072;51.688;7.842;2023-07-13T14:05:39;6.78;;;2.78;;
78752;SDS011;68072;51.688;7.842;2023-07-13T14:08:11;8.43;;;4.03;;
78752;SDS011;68072;51.688;7.842;2023-07-13T14:10:38;9.02;;;4.43;;
78752;SDS011;68072;51.688;7.842;2023-07-13T14:13:04;7.57;;;4.35;;
78752;SDS011;68072;51.688;7.842;2023-07-13T14:15:34;11.18;;;5.30;;
78752;SDS011;68072;51.688;7.842;2023-07-13T14:17:59;6.30;;;4.32;;
78752;SDS011;68072;51.688;7.842;2023-07-13T14:20:25;5.50;;;4.03;;
78752;SDS011;68072;51.688;7.842;2023-07-13T14:25:19;8.88;;;4.90;;
78752;SDS011;68072;51.688;7.842;2023-07-13T14:27:45;5.95;;;3.50;;
78752;SDS011;68072;51.688;7.842;2023-07-13T14:30:14;4.53;;;3.05;;
78752;SDS011;68072;51.688;7.842;2023-07-13T14:32:42;3.55;;;2.50;;
78752;SDS011;68072;51.688;7.842;2023-07-13T14:35:10;3.53;;;2.83;;
78752;SDS011;68072;51.688;7.842;2023-07-13T14:37:38;4.63;;;3.20;;
78752;SDS011;68072;51.688;7.842;2023-07-13T14:40:11;4.25;;;3.47;;
78752;SDS011;68072;51.688;7.842;2023-07-13T14:42:38;5.05;;;2.97;;
78752;SDS011;68072;51.688;7.842;2023-07-13T14:45:05;3.75;;;2.78;;
78752;SDS011;68072;51.688;7.842;2023-07-13T14:47:31;3.65;;;2.80;;
78752;SDS011;68072;51.688;7.842;2023-07-13T14:49:57;4.78;;;2.83;;
78752;SDS011;68072;51.688;7.842;2023-07-13T14:52:23;5.13;;;3.33;;
78752;SDS011;68072;51.688;7.842;2023-07-13T14:54:51;7.03;;;3.85;;
78752;SDS011;68072;51.688;7.842;2023-07-13T14:57:17;4.15;;;2.90;;
78752;SDS011;68072;51.688;7.842;2023-07-13T14:59:44;4.07;;;3.40;;
78752;SDS011;68072;51.688;7.842;2023-07-13T15:02:15;6.05;;;3.72;;
78752;SDS011;68072;51.688;7.842;2023-07-13T15:04:47;4.63;;;3.80;;
78752;SDS011;68072;51.688;7.842;2023-07-13T15:07:13;4.35;;;3.95;;
78752;SDS011;68072;51.688;7.842;2023-07-13T15:09:41;6.70;;;4.18;;
78752;SDS011;68072;51.688;7.842;2023-07-13T15:12:07;6.55;;;4.30;;
78752;SDS011;68072;51.688;7.842;2023-07-13T15:14:33;5.75;;;4.00;;
78752;SDS011;68072;51.688;7.842;2023-07-13T15:16:59;5.68;;;4.00;;
78752;SDS011;68072;51.688;7.842;2023-07-13T15:19:25;5.00;;;3.72;;
78752;SDS011;68072;51.688;7.842;2023-07-13T15:21:51;5.45;;;4.20;;
78752;SDS011;68072;51.688;7.842;2023-07-13T15:24:20;5.90;;;3.85;;
78752;SDS011;68072;51.688;7.842;2023-07-13T15:26:47;4.63;;;3.92;;
78752;SDS011;68072;51.688;7.842;2023-07-13T15:29:15;4.35;;;3.65;;
78752;SDS011;68072;51.688;7.842;2023-07-13T15:31:41;4.13;;;3.60;;
78752;SDS011;68072;51.688;7.842;2023-07-13T15:34:11;4.07;;;3.58;;
78752;SDS011;68072;51.688;7.842;2023-07-13T15:36:39;4.22;;;3.83;;
78752;SDS011;68072;51.688;7.842;2023-07-13T15:39:05;7.05;;;4.10;;
78752;SDS011;68072;51.688;7.842;2023-07-13T15:41:32;4.97;;;3.97;;
78752;SDS011;68072;51.688;7.842;2023-07-13T15:43:58;7.85;;;4.55;;
78752;SDS011;68072;51.688;7.842;2023-07-13T15:46:26;5.05;;;4.07;;
78752;SDS011;68072;51.688;7.842;2023-07-13T15:48:53;5.90;;;4.00;;
78752;SDS011;68072;51.688;7.842;2023-07-13T15:51:26;6.00;;;3.72;;
78752;SDS011;68072;51.688;7.842;2023-07-13T15:53:53;5.22;;;3.83;;
78752;SDS011;68072;51.688;7.842;2023-07-13T15:56:22;7.30;;;4.28;;
78752;SDS011;68072;51.688;7.842;2023-07-13T15:58:49;6.00;;;4.32;;
78752;SDS011;68072;51.688;7.842;2023-07-13T16:01:16;4.53;;;3.83;;
78752;SDS011;68072;51.688;7.842;2023-07-13T16:03:42;6.75;;;3.58;;
78752;SDS011;68072;51.688;7.842;2023-07-13T16:06:19;3.83;;;3.38;;
78752;SDS011;68072;51.688;7.842;2023-07-13T16:08:47;4.43;;;3.33;;
78752;SDS011;68072;51.688;7.842;2023-07-13T16:11:18;5.78;;;3.55;;
78752;SDS011;68072;51.688;7.842;2023-07-13T16:13:46;9.43;;;4.03;;
78752;SDS011;68072;51.688;7.842;2023-07-13T16:16:12;5.18;;;3.92;;
78752;SDS011;68072;51.688;7.842;2023-07-13T16:18:40;5.57;;;4.18;;
78752;SDS011;68072;51.688;7.842;2023-07-13T16:21:10;7.10;;;3.13;;
78752;SDS011;68072;51.688;7.842;2023-07-13T16:23:38;4.40;;;2.95;;
78752;SDS011;68072;51.688;7.842;2023-07-13T16:26:07;4.28;;;3.22;;
78752;SDS011;68072;51.688;7.842;2023-07-13T16:28:48;6.90;;;3.70;;
78752;SDS011;68072;51.688;7.842;2023-07-13T16:33:39;8.50;;;3.30;;
78752;SDS011;68072;51.688;7.842;2023-07-13T16:36:12;4.50;;;3.45;;
78752;SDS011;68072;51.688;7.842;2023-07-13T16:38:39;5.90;;;3.70;;
78752;SDS011;68072;51.688;7.842;2023-07-13T16:43:33;4.05;;;2.97;;